sensor_id;sensor_type;location;lat;lon;timestamp;P1;durP1;ratioP1;P2;durP2;ratioP2
3549;SDS011;45572;48.804;8.330;2023-06-26T00:01:18;10.33;;;7.47;;
3549;SDS011;45572;48.804;8.330;2023-06-26T00:03:48;10.50;;;7.03;;
3549;SDS011;45572;48.804;8.330;2023-06-26T00:06:16;10.60;;;7.70;;
3549;SDS011;45572;48.804;8.330;2023-06-26T00:08:44;9.68;;;7.75;;
3549;SDS011;45572;48.804;8.330;2023-06-26T00:11:12;11.60;;;7.15;;
3549;SDS011;45572;48.804;8.330;2023-06-26T00:13:39;10.75;;;7.88;;
3549;SDS011;45572;48.804;8.330;2023-06-26T00:16:08;13.23;;;7.57;;
3549;SDS011;45572;48.804;8.330;2023-06-26T00:18:35;15.50;;;7.80;;
3549;SDS011;45572;48.804;8.330;2023-06-26T00:21:04;11.32;;;7.70;;
3549;SDS011;45572;48.804;8.330;2023-06-26T00:23:32;9.60;;;7.32;;
3549;SDS011;45572;48.804;8.330;2023-06-26T00:26:05;9.07;;;6.57;;
3549;SDS011;45572;48.804;8.330;2023-06-26T00:28:33;12.23;;;7.55;;
3549;SDS011;45572;48.804;8.330;2023-06-26T00:31:02;10.73;;;7.65;;
3549;SDS011;45572;48.804;8.330;2023-06-26T00:33:30;8.15;;;7.10;;
3549;SDS011;45572;48.804;8.330;2023-06-26T00:35:57;9.77;;;7.40;;
3549;SDS011;45572;48.804;8.330;2023-06-26T00:38:27;9.35;;;7.07;;
3549;SDS011;45572;48.804;8.330;2023-06-26T00:40:57;10.35;;;8.02;;
3549;SDS011;45572;48.804;8.330;2023-06-26T00:43:24;11.10;;;7.55;;
3549;SDS011;45572;48.804;8.330;2023-06-26T00:45:52;12.57;;;8.40;;
3549;SDS011;45572;48.804;8.330;2023-06-26T00:48:20;11.50;;;7.22;;
3549;SDS011;45572;48.804;8.330;2023-06-26T00:50:50;10.98;;;7.57;;
3549;SDS011;45572;48.804;8.330;2023-06-26T00:53:17;11.88;;;7.80;;
3549;SDS011;45572;48.804;8.330;2023-06-26T00:55:47;13.18;;;7.82;;
3549;SDS011;45572;48.804;8.330;2023-06-26T00:58:14;10.60;;;6.75;;
3549;SDS011;45572;48.804;8.330;2023-06-26T01:00:42;8.18;;;6.45;;
3549;SDS011;45572;48.804;8.330;2023-06-26T01:03:12;14.52;;;8.50;;
3549;SDS011;45572;48.804;8.330;2023-06-26T01:05:39;12.50;;;8.30;;
3549;SDS011;45572;48.804;8.330;2023-06-26T01:08:12;10.50;;;6.85;;
3549;SDS011;45572;48.804;8.330;2023-06-26T01:10:40;9.60;;;7.60;;
3549;SDS011;45572;48.804;8.330;2023-06-26T01:13:10;12.18;;;8.35;;
3549;SDS011;45572;48.804;8.330;2023-06-26T01:15:39;11.15;;;8.50;;
3549;SDS011;45572;48.804;8.330;2023-06-26T01:18:07;11.48;;;8.27;;
3549;SDS011;45572;48.804;8.330;2023-06-26T01:20:36;10.15;;;7.70;;
3549;SDS011;45572;48.804;8.330;2023-06-26T01:23:09;10.20;;;7.43;;
3549;SDS011;45572;48.804;8.330;2023-06-26T01:25:53;10.18;;;7.57;;
3549;SDS011;45572;48.804;8.330;2023-06-26T01:28:29;12.55;;;8.80;;
3549;SDS011;45572;48.804;8.330;2023-06-26T01:30:58;10.63;;;7.25;;
3549;SDS011;45572;48.804;8.330;2023-06-26T01:33:29;9.77;;;6.60;;
3549;SDS011;45572;48.804;8.330;2023-06-26T01:35:57;11.25;;;7.80;;
3549;SDS011;45572;48.804;8.330;2023-06-26T01:38:26;10.13;;;7.25;;
3549;SDS011;45572;48.804;8.330;2023-06-26T01:40:56;10.50;;;7.63;;
3549;SDS011;45572;48.804;8.330;2023-06-26T01:43:26;11.43;;;8.55;;
3549;SDS011;45572;48.804;8.330;2023-06-26T01:45:59;12.35;;;8.80;;
3549;SDS011;45572;48.804;8.330;2023-06-26T01:48:33;10.98;;;7.78;;
3549;SDS011;45572;48.804;8.330;2023-06-26T01:51:06;10.20;;;7.63;;
3549;SDS011;45572;48.804;8.330;2023-06-26T01:53:36;12.32;;;6.88;;
3549;SDS011;45572;48.804;8.330;2023-06-26T01:56:13;9.85;;;6.78;;
3549;SDS011;45572;48.804;8.330;2023-06-26T01:58:46;11.18;;;7.47;;
3549;SDS011;45572;48.804;8.330;2023-06-26T02:01:15;10.15;;;8.25;;
3549;SDS011;45572;48.804;8.330;2023-06-26T02:03:45;12.43;;;8.18;;
3549;SDS011;45572;48.804;8.330;2023-06-26T02:06:13;8.70;;;6.97;;
3549;SDS011;45572;48.804;8.330;2023-06-26T02:08:41;12.40;;;7.80;;
3549;SDS011;45572;48.804;8.330;2023-06-26T02:11:09;10.90;;;7.05;;
3549;SDS011;45572;48.804;8.330;2023-06-26T02:13:39;11.18;;;7.68;;
3549;SDS011;45572;48.804;8.330;2023-06-26T02:16:08;9.10;;;6.43;;
3549;SDS011;45572;48.804;8.330;2023-06-26T02:18:35;10.48;;;7.22;;
3549;SDS011;45572;48.804;8.330;2023-06-26T02:21:03;11.20;;;7.43;;
3549;SDS011;45572;48.804;8.330;2023-06-26T02:23:31;11.43;;;7.97;;
3549;SDS011;45572;48.804;8.330;2023-06-26T02:25:59;12.43;;;7.57;;
3549;SDS011;45572;48.804;8.330;2023-06-26T02:28:27;9.20;;;6.65;;
3549;SDS011;45572;48.804;8.330;2023-06-26T02:30:57;9.98;;;7.78;;
3549;SDS011;45572;48.804;8.330;2023-06-26T02:33:26;12.35;;;7.70;;
3549;SDS011;45572;48.804;8.330;2023-06-26T02:35:53;11.15;;;7.22;;
3549;SDS011;45572;48.804;8.330;2023-06-26T02:38:21;12.20;;;7.97;;
3549;SDS011;45572;48.804;8.330;2023-06-26T02:40:49;10.23;;;7.63;;
3549;SDS011;45572;48.804;8.330;2023-06-26T02:43:17;12.05;;;7.70;;
3549;SDS011;45572;48.804;8.330;2023-06-26T02:45:46;12.45;;;8.10;;
3549;SDS011;45572;48.804;8.330;2023-06-26T02:48:13;11.60;;;8.32;;
3549;SDS011;45572;48.804;8.330;2023-06-26T02:50:43;10.57;;;7.85;;
3549;SDS011;45572;48.804;8.330;2023-06-26T02:53:13;10.18;;;6.82;;
3549;SDS011;45572;48.804;8.330;2023-06-26T02:55:44;9.95;;;7.53;;
3549;SDS011;45572;48.804;8.330;2023-06-26T02:58:14;13.25;;;7.18;;
3549;SDS011;45572;48.804;8.330;2023-06-26T03:00:42;11.02;;;7.68;;
3549;SDS011;45572;48.804;8.330;2023-06-26T03:03:14;11.27;;;7.63;;
3549;SDS011;45572;48.804;8.330;2023-06-26T03:05:44;9.63;;;7.57;;
3549;SDS011;45572;48.804;8.330;2023-06-26T03:08:12;13.18;;;8.00;;
3549;SDS011;45572;48.804;8.330;2023-06-26T03:10:39;9.73;;;7.20;;
3549;SDS011;45572;48.804;8.330;2023-06-26T03:13:08;10.48;;;6.93;;
3549;SDS011;45572;48.804;8.330;2023-06-26T03:15:36;10.10;;;7.30;;
3549;SDS011;45572;48.804;8.330;2023-06-26T03:18:05;11.25;;;7.65;;
3549;SDS011;45572;48.804;8.330;2023-06-26T03:20:33;11.90;;;7.60;;
3549;SDS011;45572;48.804;8.330;2023-06-26T03:23:02;9.80;;;7.00;;
3549;SDS011;45572;48.804;8.330;2023-06-26T03:25:30;11.10;;;7.85;;
3549;SDS011;45572;48.804;8.330;2023-06-26T03:28:10;10.07;;;7.47;;
3549;SDS011;45572;48.804;8.330;2023-06-26T03:30:39;10.95;;;6.75;;
3549;SDS011;45572;48.804;8.330;2023-06-26T03:33:07;9.00;;;7.18;;
3549;SDS011;45572;48.804;8.330;2023-06-26T03:35:35;8.80;;;6.70;;
3549;SDS011;45572;48.804;8.330;2023-06-26T03:38:04;11.77;;;7.93;;
3549;SDS011;45572;48.804;8.330;2023-06-26T03:40:32;11.10;;;7.60;;
3549;SDS011;45572;48.804;8.330;2023-06-26T03:43:00;10.30;;;7.90;;
3549;SDS011;45572;48.804;8.330;2023-06-26T03:45:37;10.63;;;7.65;;
3549;SDS011;45572;48.804;8.330;2023-06-26T03:48:05;11.32;;;6.55;;
3549;SDS011;45572;48.804;8.330;2023-06-26T03:50:35;9.27;;;6.60;;
3549;SDS011;45572;48.804;8.330;2023-06-26T03:53:05;10.45;;;6.93;;
3549;SDS011;45572;48.804;8.330;2023-06-26T03:55:32;10.05;;;6.90;;
3549;SDS011;45572;48.804;8.330;2023-06-26T03:58:03;8.68;;;7.15;;
3549;SDS011;45572;48.804;8.330;2023-06-26T04:00:31;9.68;;;7.18;;
3549;SDS011;45572;48.804;8.330;2023-06-26T04:02:59;8.73;;;6.30;;
3549;SDS011;45572;48.804;8.330;2023-06-26T04:05:29;11.85;;;7.88;;
3549;SDS011;45572;48.804;8.330;2023-06-26T04:07:57;11.07;;;7.38;;
3549;SDS011;45572;48.804;8.330;2023-06-26T04:10:26;9.23;;;7.55;;
3549;SDS011;45572;48.804;8.330;2023-06-26T04:12:54;9.57;;;6.82;;
3549;SDS011;45572;48.804;8.330;2023-06-26T04:15:21;12.50;;;7.50;;
3549;SDS011;45572;48.804;8.330;2023-06-26T04:17:49;9.40;;;7.65;;
3549;SDS011;45572;48.804;8.330;2023-06-26T04:20:19;8.80;;;6.72;;
3549;SDS011;45572;48.804;8.330;2023-06-26T04:22:46;10.23;;;7.55;;
3549;SDS011;45572;48.804;8.330;2023-06-26T04:25:14;10.65;;;7.60;;
3549;SDS011;45572;48.804;8.330;2023-06-26T04:27:43;9.90;;;7.13;;
3549;SDS011;45572;48.804;8.330;2023-06-26T04:30:11;11.68;;;7.65;;
3549;SDS011;45572;48.804;8.330;2023-06-26T04:32:40;12.65;;;7.93;;
3549;SDS011;45572;48.804;8.330;2023-06-26T04:35:07;12.50;;;8.00;;
3549;SDS011;45572;48.804;8.330;2023-06-26T04:37:36;11.57;;;7.38;;
3549;SDS011;45572;48.804;8.330;2023-06-26T04:40:05;12.45;;;7.07;;
3549;SDS011;45572;48.804;8.330;2023-06-26T04:42:35;10.40;;;7.28;;
3549;SDS011;45572;48.804;8.330;2023-06-26T04:45:05;11.18;;;8.60;;
3549;SDS011;45572;48.804;8.330;2023-06-26T04:47:35;11.25;;;8.57;;
3549;SDS011;45572;48.804;8.330;2023-06-26T04:50:03;9.52;;;7.50;;
3549;SDS011;45572;48.804;8.330;2023-06-26T04:52:33;9.25;;;6.47;;
3549;SDS011;45572;48.804;8.330;2023-06-26T04:55:01;11.88;;;7.22;;
3549;SDS011;45572;48.804;8.330;2023-06-26T04:57:29;12.30;;;8.13;;
3549;SDS011;45572;48.804;8.330;2023-06-26T04:59:57;12.05;;;7.38;;
3549;SDS011;45572;48.804;8.330;2023-06-26T05:02:26;11.13;;;7.55;;
3549;SDS011;45572;48.804;8.330;2023-06-26T05:04:55;9.43;;;7.20;;
3549;SDS011;45572;48.804;8.330;2023-06-26T05:07:23;10.73;;;7.50;;
3549;SDS011;45572;48.804;8.330;2023-06-26T05:09:51;8.57;;;6.90;;
3549;SDS011;45572;48.804;8.330;2023-06-26T05:12:18;9.68;;;6.90;;
3549;SDS011;45572;48.804;8.330;2023-06-26T05:14:46;10.73;;;7.00;;
3549;SDS011;45572;48.804;8.330;2023-06-26T05:17:14;9.97;;;7.77;;
3549;SDS011;45572;48.804;8.330;2023-06-26T05:19:43;11.40;;;7.53;;
3549;SDS011;45572;48.804;8.330;2023-06-26T05:22:11;10.93;;;7.03;;
3549;SDS011;45572;48.804;8.330;2023-06-26T05:24:40;11.40;;;7.77;;
3549;SDS011;45572;48.804;8.330;2023-06-26T05:27:14;9.03;;;6.83;;
3549;SDS011;45572;48.804;8.330;2023-06-26T05:29:48;14.17;;;8.03;;
3549;SDS011;45572;48.804;8.330;2023-06-26T05:32:16;15.33;;;6.70;;
3549;SDS011;45572;48.804;8.330;2023-06-26T05:34:47;10.13;;;7.37;;
3549;SDS011;45572;48.804;8.330;2023-06-26T05:37:16;11.83;;;7.90;;
3549;SDS011;45572;48.804;8.330;2023-06-26T05:39:49;8.50;;;6.57;;
3549;SDS011;45572;48.804;8.330;2023-06-26T05:42:17;12.90;;;8.30;;
3549;SDS011;45572;48.804;8.330;2023-06-26T05:44:45;10.10;;;7.23;;
3549;SDS011;45572;48.804;8.330;2023-06-26T05:47:14;8.37;;;6.17;;
3549;SDS011;45572;48.804;8.330;2023-06-26T05:49:47;11.33;;;7.13;;
3549;SDS011;45572;48.804;8.330;2023-06-26T05:52:16;12.80;;;7.40;;
3549;SDS011;45572;48.804;8.330;2023-06-26T05:54:44;8.33;;;7.47;;
3549;SDS011;45572;48.804;8.330;2023-06-26T05:57:15;10.03;;;7.07;;
3549;SDS011;45572;48.804;8.330;2023-06-26T05:59:48;10.37;;;7.20;;
3549;SDS011;45572;48.804;8.330;2023-06-26T06:02:16;10.13;;;6.73;;
3549;SDS011;45572;48.804;8.330;2023-06-26T06:04:45;10.50;;;6.47;;
3549;SDS011;45572;48.804;8.330;2023-06-26T06:07:15;9.00;;;5.97;;
3549;SDS011;45572;48.804;8.330;2023-06-26T06:09:43;8.83;;;6.83;;
3549;SDS011;45572;48.804;8.330;2023-06-26T06:12:11;9.37;;;6.97;;
3549;SDS011;45572;48.804;8.330;2023-06-26T06:14:38;7.47;;;6.30;;
3549;SDS011;45572;48.804;8.330;2023-06-26T06:17:06;6.90;;;5.70;;
3549;SDS011;45572;48.804;8.330;2023-06-26T06:19:34;7.70;;;5.87;;
3549;SDS011;45572;48.804;8.330;2023-06-26T06:22:03;7.47;;;6.53;;
3549;SDS011;45572;48.804;8.330;2023-06-26T06:24:31;7.20;;;5.60;;
3549;SDS011;45572;48.804;8.330;2023-06-26T06:26:58;6.67;;;5.90;;
3549;SDS011;45572;48.804;8.330;2023-06-26T06:29:27;7.33;;;5.93;;
3549;SDS011;45572;48.804;8.330;2023-06-26T06:31:56;6.40;;;5.80;;
3549;SDS011;45572;48.804;8.330;2023-06-26T06:34:24;8.33;;;6.57;;
3549;SDS011;45572;48.804;8.330;2023-06-26T06:36:53;8.03;;;5.13;;
3549;SDS011;45572;48.804;8.330;2023-06-26T06:39:23;6.90;;;6.13;;
3549;SDS011;45572;48.804;8.330;2023-06-26T06:41:51;6.43;;;5.83;;
3549;SDS011;45572;48.804;8.330;2023-06-26T06:44:20;7.07;;;5.90;;
3549;SDS011;45572;48.804;8.330;2023-06-26T06:46:48;8.40;;;6.10;;
3549;SDS011;45572;48.804;8.330;2023-06-26T06:49:18;7.57;;;5.80;;
3549;SDS011;45572;48.804;8.330;2023-06-26T06:51:47;6.17;;;5.57;;
3549;SDS011;45572;48.804;8.330;2023-06-26T06:54:18;6.30;;;5.00;;
3549;SDS011;45572;48.804;8.330;2023-06-26T06:56:48;6.23;;;5.53;;
3549;SDS011;45572;48.804;8.330;2023-06-26T06:59:20;5.73;;;5.23;;
3549;SDS011;45572;48.804;8.330;2023-06-26T07:01:48;10.80;;;6.00;;
3549;SDS011;45572;48.804;8.330;2023-06-26T07:04:18;6.53;;;5.63;;
3549;SDS011;45572;48.804;8.330;2023-06-26T07:06:46;6.23;;;5.63;;
3549;SDS011;45572;48.804;8.330;2023-06-26T07:09:14;5.30;;;4.80;;
3549;SDS011;45572;48.804;8.330;2023-06-26T07:11:43;7.27;;;5.60;;
3549;SDS011;45572;48.804;8.330;2023-06-26T07:14:15;7.13;;;5.83;;
3549;SDS011;45572;48.804;8.330;2023-06-26T07:16:42;6.67;;;5.97;;
3549;SDS011;45572;48.804;8.330;2023-06-26T07:19:10;5.40;;;4.90;;
3549;SDS011;45572;48.804;8.330;2023-06-26T07:21:39;5.60;;;5.10;;
3549;SDS011;45572;48.804;8.330;2023-06-26T07:24:08;5.70;;;4.93;;
3549;SDS011;45572;48.804;8.330;2023-06-26T07:26:37;7.53;;;5.47;;
3549;SDS011;45572;48.804;8.330;2023-06-26T07:29:12;7.00;;;5.40;;
3549;SDS011;45572;48.804;8.330;2023-06-26T07:31:41;9.40;;;4.23;;
3549;SDS011;45572;48.804;8.330;2023-06-26T07:34:11;6.13;;;5.23;;
3549;SDS011;45572;48.804;8.330;2023-06-26T07:36:39;5.67;;;4.70;;
3549;SDS011;45572;48.804;8.330;2023-06-26T07:39:07;5.20;;;4.53;;
3549;SDS011;45572;48.804;8.330;2023-06-26T07:41:39;4.80;;;4.40;;
3549;SDS011;45572;48.804;8.330;2023-06-26T07:44:07;6.70;;;4.90;;
3549;SDS011;45572;48.804;8.330;2023-06-26T07:46:35;4.97;;;4.50;;
3549;SDS011;45572;48.804;8.330;2023-06-26T07:49:04;5.13;;;4.63;;
3549;SDS011;45572;48.804;8.330;2023-06-26T07:51:32;4.03;;;3.63;;
3549;SDS011;45572;48.804;8.330;2023-06-26T07:54:00;5.13;;;4.63;;
3549;SDS011;45572;48.804;8.330;2023-06-26T07:56:27;7.10;;;4.33;;
3549;SDS011;45572;48.804;8.330;2023-06-26T07:58:55;4.90;;;4.40;;
3549;SDS011;45572;48.804;8.330;2023-06-26T08:01:23;4.93;;;4.53;;
3549;SDS011;45572;48.804;8.330;2023-06-26T08:03:51;4.80;;;4.30;;
3549;SDS011;45572;48.804;8.330;2023-06-26T08:06:22;5.40;;;4.90;;
3549;SDS011;45572;48.804;8.330;2023-06-26T08:08:49;5.20;;;4.70;;
3549;SDS011;45572;48.804;8.330;2023-06-26T08:11:19;5.17;;;4.67;;
3549;SDS011;45572;48.804;8.330;2023-06-26T08:13:46;4.20;;;3.80;;
3549;SDS011;45572;48.804;8.330;2023-06-26T08:16:15;5.27;;;4.70;;
3549;SDS011;45572;48.804;8.330;2023-06-26T08:18:44;4.83;;;4.43;;
3549;SDS011;45572;48.804;8.330;2023-06-26T08:21:12;7.50;;;5.13;;
3549;SDS011;45572;48.804;8.330;2023-06-26T08:23:41;6.07;;;4.53;;
3549;SDS011;45572;48.804;8.330;2023-06-26T08:26:14;5.90;;;4.90;;
3549;SDS011;45572;48.804;8.330;2023-06-26T08:28:41;6.00;;;4.80;;
3549;SDS011;45572;48.804;8.330;2023-06-26T08:31:10;5.50;;;5.00;;
3549;SDS011;45572;48.804;8.330;2023-06-26T08:33:41;6.27;;;5.53;;
3549;SDS011;45572;48.804;8.330;2023-06-26T08:36:09;7.00;;;5.50;;
3549;SDS011;45572;48.804;8.330;2023-06-26T08:38:36;6.43;;;5.83;;
3549;SDS011;45572;48.804;8.330;2023-06-26T08:41:10;8.50;;;5.23;;
3549;SDS011;45572;48.804;8.330;2023-06-26T08:43:38;10.27;;;5.70;;
3549;SDS011;45572;48.804;8.330;2023-06-26T08:46:07;7.13;;;6.40;;
3549;SDS011;45572;48.804;8.330;2023-06-26T08:48:37;7.60;;;5.53;;
3549;SDS011;45572;48.804;8.330;2023-06-26T08:51:08;6.43;;;5.50;;
3549;SDS011;45572;48.804;8.330;2023-06-26T08:53:42;5.97;;;5.37;;
3549;SDS011;45572;48.804;8.330;2023-06-26T08:56:16;6.60;;;5.90;;
3549;SDS011;45572;48.804;8.330;2023-06-26T08:58:50;7.67;;;6.37;;
3549;SDS011;45572;48.804;8.330;2023-06-26T09:01:20;10.23;;;7.03;;
3549;SDS011;45572;48.804;8.330;2023-06-26T09:03:50;7.27;;;5.27;;
3549;SDS011;45572;48.804;8.330;2023-06-26T09:06:19;6.47;;;5.87;;
3549;SDS011;45572;48.804;8.330;2023-06-26T09:08:47;8.63;;;6.93;;
3549;SDS011;45572;48.804;8.330;2023-06-26T09:11:17;6.57;;;5.70;;
3549;SDS011;45572;48.804;8.330;2023-06-26T09:13:45;7.20;;;5.50;;
3549;SDS011;45572;48.804;8.330;2023-06-26T09:16:17;8.70;;;6.70;;
3549;SDS011;45572;48.804;8.330;2023-06-26T09:18:45;8.20;;;6.53;;
3549;SDS011;45572;48.804;8.330;2023-06-26T09:21:15;5.87;;;5.37;;
3549;SDS011;45572;48.804;8.330;2023-06-26T09:23:43;7.93;;;5.97;;
3549;SDS011;45572;48.804;8.330;2023-06-26T09:26:12;7.03;;;6.13;;
3549;SDS011;45572;48.804;8.330;2023-06-26T09:28:45;11.60;;;5.70;;
3549;SDS011;45572;48.804;8.330;2023-06-26T09:31:17;6.13;;;5.10;;
3549;SDS011;45572;48.804;8.330;2023-06-26T09:34:06;6.13;;;5.10;;
3549;SDS011;45572;48.804;8.330;2023-06-26T09:36:34;8.77;;;6.20;;
3549;SDS011;45572;48.804;8.330;2023-06-26T09:39:06;7.47;;;5.80;;
3549;SDS011;45572;48.804;8.330;2023-06-26T09:41:40;11.67;;;6.03;;
3549;SDS011;45572;48.804;8.330;2023-06-26T09:44:11;7.40;;;5.40;;
3549;SDS011;45572;48.804;8.330;2023-06-26T09:46:44;9.30;;;5.80;;
3549;SDS011;45572;48.804;8.330;2023-06-26T09:49:12;11.33;;;6.17;;
3549;SDS011;45572;48.804;8.330;2023-06-26T09:51:44;8.20;;;5.83;;
3549;SDS011;45572;48.804;8.330;2023-06-26T09:54:11;7.77;;;5.97;;
3549;SDS011;45572;48.804;8.330;2023-06-26T09:56:46;6.20;;;5.30;;
3549;SDS011;45572;48.804;8.330;2023-06-26T09:59:17;6.47;;;5.20;;
3549;SDS011;45572;48.804;8.330;2023-06-26T10:01:47;7.43;;;5.43;;
3549;SDS011;45572;48.804;8.330;2023-06-26T10:04:16;6.93;;;5.90;;
3549;SDS011;45572;48.804;8.330;2023-06-26T10:06:46;6.57;;;5.40;;
3549;SDS011;45572;48.804;8.330;2023-06-26T10:09:17;7.10;;;5.53;;
3549;SDS011;45572;48.804;8.330;2023-06-26T10:11:46;6.60;;;5.47;;
3549;SDS011;45572;48.804;8.330;2023-06-26T10:14:22;7.67;;;5.43;;
3549;SDS011;45572;48.804;8.330;2023-06-26T10:16:55;11.90;;;6.07;;
3549;SDS011;45572;48.804;8.330;2023-06-26T10:19:26;9.97;;;6.30;;
3549;SDS011;45572;48.804;8.330;2023-06-26T10:21:57;6.10;;;4.80;;
3549;SDS011;45572;48.804;8.330;2023-06-26T10:24:29;7.70;;;5.20;;
3549;SDS011;45572;48.804;8.330;2023-06-26T10:27:04;7.33;;;5.30;;
3549;SDS011;45572;48.804;8.330;2023-06-26T10:29:40;9.63;;;6.57;;
3549;SDS011;45572;48.804;8.330;2023-06-26T10:32:11;7.40;;;6.07;;
3549;SDS011;45572;48.804;8.330;2023-06-26T10:34:41;7.07;;;5.90;;
3549;SDS011;45572;48.804;8.330;2023-06-26T10:37:09;8.50;;;6.50;;
3549;SDS011;45572;48.804;8.330;2023-06-26T10:39:47;7.93;;;5.50;;
3549;SDS011;45572;48.804;8.330;2023-06-26T10:42:16;9.73;;;6.23;;
3549;SDS011;45572;48.804;8.330;2023-06-26T10:44:46;9.93;;;6.73;;
3549;SDS011;45572;48.804;8.330;2023-06-26T10:47:28;9.10;;;5.80;;
3549;SDS011;45572;48.804;8.330;2023-06-26T10:50:11;7.87;;;5.80;;
3549;SDS011;45572;48.804;8.330;2023-06-26T10:53:10;7.13;;;5.03;;
3549;SDS011;45572;48.804;8.330;2023-06-26T10:55:41;7.13;;;4.03;;
3549;SDS011;45572;48.804;8.330;2023-06-26T11:03:44;5.53;;;4.33;;
3549;SDS011;45572;48.804;8.330;2023-06-26T11:06:17;6.13;;;4.17;;
3549;SDS011;45572;48.804;8.330;2023-06-26T11:08:51;5.70;;;3.83;;
3549;SDS011;45572;48.804;8.330;2023-06-26T11:11:23;4.80;;;4.40;;
3549;SDS011;45572;48.804;8.330;2023-06-26T11:14:33;7.10;;;4.13;;
3549;SDS011;45572;48.804;8.330;2023-06-26T11:17:04;5.90;;;4.30;;
3549;SDS011;45572;48.804;8.330;2023-06-26T11:19:32;5.67;;;3.70;;
3549;SDS011;45572;48.804;8.330;2023-06-26T11:22:02;6.57;;;4.13;;
3549;SDS011;45572;48.804;8.330;2023-06-26T11:24:31;5.30;;;4.20;;
3549;SDS011;45572;48.804;8.330;2023-06-26T11:26:59;4.50;;;3.27;;
3549;SDS011;45572;48.804;8.330;2023-06-26T11:29:30;10.80;;;3.80;;
3549;SDS011;45572;48.804;8.330;2023-06-26T11:32:00;5.97;;;4.50;;
3549;SDS011;45572;48.804;8.330;2023-06-26T11:34:37;7.73;;;3.30;;
3549;SDS011;45572;48.804;8.330;2023-06-26T11:37:05;4.37;;;3.53;;
3549;SDS011;45572;48.804;8.330;2023-06-26T11:39:41;4.37;;;3.40;;
3549;SDS011;45572;48.804;8.330;2023-06-26T11:42:10;6.93;;;3.67;;
3549;SDS011;45572;48.804;8.330;2023-06-26T11:44:40;4.50;;;3.40;;
3549;SDS011;45572;48.804;8.330;2023-06-26T11:47:12;7.20;;;3.63;;
3549;SDS011;45572;48.804;8.330;2023-06-26T11:49:46;6.40;;;3.63;;
3549;SDS011;45572;48.804;8.330;2023-06-26T11:52:17;5.30;;;3.50;;
3549;SDS011;45572;48.804;8.330;2023-06-26T11:54:49;3.90;;;3.50;;
3549;SDS011;45572;48.804;8.330;2023-06-26T11:57:16;4.77;;;3.20;;
3549;SDS011;45572;48.804;8.330;2023-06-26T11:59:45;3.80;;;3.10;;
3549;SDS011;45572;48.804;8.330;2023-06-26T12:02:13;4.30;;;3.50;;
3549;SDS011;45572;48.804;8.330;2023-06-26T12:04:43;6.00;;;3.77;;
3549;SDS011;45572;48.804;8.330;2023-06-26T12:07:15;4.60;;;3.17;;
3549;SDS011;45572;48.804;8.330;2023-06-26T12:09:45;5.50;;;3.50;;
3549;SDS011;45572;48.804;8.330;2023-06-26T12:12:16;6.17;;;3.93;;
3549;SDS011;45572;48.804;8.330;2023-06-26T12:14:46;3.77;;;3.23;;
3549;SDS011;45572;48.804;8.330;2023-06-26T12:17:15;6.63;;;3.23;;
3549;SDS011;45572;48.804;8.330;2023-06-26T12:19:46;3.00;;;2.70;;
3549;SDS011;45572;48.804;8.330;2023-06-26T12:22:17;4.90;;;3.13;;
3549;SDS011;45572;48.804;8.330;2023-06-26T12:24:46;4.23;;;2.90;;
3549;SDS011;45572;48.804;8.330;2023-06-26T12:27:18;3.50;;;3.10;;
3549;SDS011;45572;48.804;8.330;2023-06-26T12:29:49;6.70;;;2.70;;
3549;SDS011;45572;48.804;8.330;2023-06-26T12:32:18;4.90;;;2.70;;
3549;SDS011;45572;48.804;8.330;2023-06-26T12:34:48;4.60;;;2.00;;
3549;SDS011;45572;48.804;8.330;2023-06-26T12:37:20;4.20;;;2.40;;
3549;SDS011;45572;48.804;8.330;2023-06-26T12:39:49;2.50;;;2.23;;
3549;SDS011;45572;48.804;8.330;2023-06-26T12:42:18;5.57;;;2.77;;
3549;SDS011;45572;48.804;8.330;2023-06-26T12:44:48;4.83;;;3.27;;
3549;SDS011;45572;48.804;8.330;2023-06-26T12:47:23;3.47;;;2.67;;
3549;SDS011;45572;48.804;8.330;2023-06-26T12:49:54;6.47;;;3.00;;
3549;SDS011;45572;48.804;8.330;2023-06-26T12:52:23;3.90;;;2.87;;
3549;SDS011;45572;48.804;8.330;2023-06-26T12:54:52;5.93;;;2.90;;
3549;SDS011;45572;48.804;8.330;2023-06-26T12:57:21;5.37;;;2.97;;
3549;SDS011;45572;48.804;8.330;2023-06-26T12:59:51;4.87;;;3.10;;
3549;SDS011;45572;48.804;8.330;2023-06-26T13:02:19;7.03;;;2.73;;
3549;SDS011;45572;48.804;8.330;2023-06-26T13:04:48;4.30;;;3.23;;
3549;SDS011;45572;48.804;8.330;2023-06-26T13:07:17;8.30;;;3.07;;
3549;SDS011;45572;48.804;8.330;2023-06-26T13:09:45;9.47;;;3.47;;
3549;SDS011;45572;48.804;8.330;2023-06-26T13:12:14;4.10;;;3.43;;
3549;SDS011;45572;48.804;8.330;2023-06-26T13:14:42;3.50;;;3.20;;
3549;SDS011;45572;48.804;8.330;2023-06-26T13:17:11;5.50;;;3.53;;
3549;SDS011;45572;48.804;8.330;2023-06-26T13:19:39;4.53;;;3.23;;
3549;SDS011;45572;48.804;8.330;2023-06-26T13:22:08;3.87;;;3.40;;
3549;SDS011;45572;48.804;8.330;2023-06-26T13:24:42;6.27;;;3.60;;
3549;SDS011;45572;48.804;8.330;2023-06-26T13:27:10;5.17;;;3.20;;
3549;SDS011;45572;48.804;8.330;2023-06-26T13:29:37;5.37;;;3.10;;
3549;SDS011;45572;48.804;8.330;2023-06-26T13:32:05;5.10;;;3.13;;
3549;SDS011;45572;48.804;8.330;2023-06-26T13:34:34;4.83;;;3.27;;
3549;SDS011;45572;48.804;8.330;2023-06-26T13:37:02;4.40;;;3.50;;
3549;SDS011;45572;48.804;8.330;2023-06-26T13:39:31;8.67;;;3.87;;
3549;SDS011;45572;48.804;8.330;2023-06-26T13:42:01;6.60;;;4.20;;
3549;SDS011;45572;48.804;8.330;2023-06-26T13:44:32;6.07;;;4.70;;
3549;SDS011;45572;48.804;8.330;2023-06-26T13:47:20;7.00;;;4.53;;
3549;SDS011;45572;48.804;8.330;2023-06-26T13:49:48;8.40;;;5.17;;
3549;SDS011;45572;48.804;8.330;2023-06-26T13:52:16;7.47;;;5.03;;
3549;SDS011;45572;48.804;8.330;2023-06-26T13:54:46;6.50;;;4.57;;
3549;SDS011;45572;48.804;8.330;2023-06-26T13:57:17;6.50;;;5.00;;
3549;SDS011;45572;48.804;8.330;2023-06-26T13:59:47;8.90;;;5.10;;
3549;SDS011;45572;48.804;8.330;2023-06-26T14:02:15;6.83;;;4.83;;
3549;SDS011;45572;48.804;8.330;2023-06-26T14:04:43;10.93;;;4.87;;
3549;SDS011;45572;48.804;8.330;2023-06-26T14:07:11;6.40;;;5.23;;
3549;SDS011;45572;48.804;8.330;2023-06-26T14:09:41;9.10;;;5.07;;
3549;SDS011;45572;48.804;8.330;2023-06-26T14:12:12;7.60;;;5.50;;
3549;SDS011;45572;48.804;8.330;2023-06-26T14:14:43;7.00;;;5.50;;
3549;SDS011;45572;48.804;8.330;2023-06-26T14:17:10;8.93;;;6.17;;
3549;SDS011;45572;48.804;8.330;2023-06-26T14:19:45;9.87;;;5.97;;
3549;SDS011;45572;48.804;8.330;2023-06-26T14:22:14;7.40;;;5.40;;
3549;SDS011;45572;48.804;8.330;2023-06-26T14:24:42;6.83;;;5.67;;
3549;SDS011;45572;48.804;8.330;2023-06-26T14:27:11;6.70;;;5.67;;
3549;SDS011;45572;48.804;8.330;2023-06-26T14:29:40;6.87;;;5.70;;
3549;SDS011;45572;48.804;8.330;2023-06-26T14:32:10;11.70;;;6.03;;
3549;SDS011;45572;48.804;8.330;2023-06-26T14:34:43;7.53;;;6.27;;
3549;SDS011;45572;48.804;8.330;2023-06-26T14:37:10;8.90;;;5.73;;
3549;SDS011;45572;48.804;8.330;2023-06-26T14:39:40;12.20;;;7.10;;
3549;SDS011;45572;48.804;8.330;2023-06-26T14:42:09;13.20;;;7.57;;
3549;SDS011;45572;48.804;8.330;2023-06-26T14:44:37;13.77;;;6.80;;
3549;SDS011;45572;48.804;8.330;2023-06-26T14:47:06;10.63;;;6.80;;
3549;SDS011;45572;48.804;8.330;2023-06-26T14:49:38;6.53;;;5.80;;
3549;SDS011;45572;48.804;8.330;2023-06-26T14:52:09;7.83;;;6.33;;
3549;SDS011;45572;48.804;8.330;2023-06-26T14:54:36;20.53;;;7.40;;
3549;SDS011;45572;48.804;8.330;2023-06-26T14:57:06;12.63;;;6.37;;
3549;SDS011;45572;48.804;8.330;2023-06-26T14:59:34;7.97;;;5.90;;
3549;SDS011;45572;48.804;8.330;2023-06-26T15:02:04;8.77;;;5.47;;
3549;SDS011;45572;48.804;8.330;2023-06-26T15:04:33;7.20;;;5.57;;
3549;SDS011;45572;48.804;8.330;2023-06-26T15:07:04;8.67;;;5.37;;
3549;SDS011;45572;48.804;8.330;2023-06-26T15:09:32;6.90;;;5.50;;
3549;SDS011;45572;48.804;8.330;2023-06-26T15:12:00;7.70;;;5.53;;
3549;SDS011;45572;48.804;8.330;2023-06-26T15:14:32;8.07;;;5.10;;
3549;SDS011;45572;48.804;8.330;2023-06-26T15:16:59;8.10;;;5.07;;
3549;SDS011;45572;48.804;8.330;2023-06-26T15:19:27;6.17;;;4.43;;